Allerte
Precipitazioni in corso 

Palermo - P.
Reggio Calab
Cagliari
Rieti
Fiumicino
Guidonia

Allerta Gelo (░C)  

Nessuna

Allerta Vento (km/h)  

Nessuna

Scarsa VisibilitÓ (m) 

Nessuna

Allerta Caldo (░C)  

Nessuna

Allerta Afa (░C-UR)  

Nessuna

Dati e Grafici Climatici 3-7 gg
L'OMTeA propone un elaborazione dei più importanti parametri meteorologici rilevati dalle stazioni che hanno aderito al progetto di monitoraggio. In questa sezione è possibile consultare i dati provenienti dalle centraline, interpretati attraverso output testuale e grafico.
Se vuoi aderire alla rete OMTeA vai alla pagina Info e leggi requisiti e vantaggi.

Stazione di Pomezia - www.pomeziameteo.it

Valori rilevati il 20/09/2018 alle ore 16:59

Temperatura atmosferica: 27.2 °C
Pressione atmosferica: 1014.2 mbar
Umidità relativa: 62 %
Pioggia (cumulata giornaliera): 13.2 mm
Intensità e direzione vento: 14.5 Km/h da SE

Altitudine: 108 metri s.l.m.
Latitudine: 41.41° N
Longitudine: 12.30° E



Entra nella rete OMTeA!. Potrai liberamente usare sul tuo sito questi grafici; info alla pagina Istruzioni.

Ultime 50 rilevazioni
Orario Temp
°C
Rugiada
°C
Prec.
mm
Press.
mbar
Umidità
%
Int. vento
km/h
Dir.
vento
16:59 - 20/09 27.2 19.3 0 1014.20 62 14.5 SE
16:44 - 20/09 27.6 19.4 0 1014.20 61 12.9 SSE
16:29 - 20/09 27.8 19.6 0 1014.00 61 8.0 SSE
16:15 - 20/09 27.7 20.0 0 1014.10 63 8.0 SSE
15:59 - 20/09 27.5 19.8 0 1014.30 63 0 --
15:45 - 20/09 27.2 19.8 0 1014.20 64 11.3 SSE
15:30 - 20/09 26.9 20.0 0 1014.10 66 9.7 SE
15:14 - 20/09 27.0 20.1 0 1014.30 66 16.1 SSE
15:00 - 20/09 27.7 19.5 0 1014.40 61 12.9 SSE
14:44 - 20/09 27.8 19.8 0 1014.50 62 0 --
14:30 - 20/09 27.6 19.4 0 1014.70 61 8.0 SE
14:14 - 20/09 27.2 19.3 0 1014.90 62 14.5 ENE
14:00 - 20/09 27.1 19.2 0 1015.10 62 17.7 E
13:45 - 20/09 27.2 19.3 0 1015.00 62 8.0 SE
13:30 - 20/09 27.3 19.4 0 1015.10 62 22.5 ESE
13:14 - 20/09 27.1 19.9 0 1015.20 65 11.3 SSE
13:00 - 20/09 26.4 20.2 0 1015.20 69 0 --
12:44 - 20/09 26.0 21.4 0 1015.40 76 4.8 NNE
12:30 - 20/09 25.8 20.6 0 1015.50 73 6.4 E
12:15 - 20/09 25.4 20.2 0 1015.60 73 6.4 SSE
12:00 - 20/09 24.4 20.1 0 1015.60 77 8.0 E
11:45 - 20/09 23.7 21.2 0 1015.60 86 0 --
11:30 - 20/09 23.2 21.3 0 1015.80 89 0 --
11:14 - 20/09 22.7 21.0 0 1015.80 90 0 --
11:00 - 20/09 22.4 20.5 0 1015.80 89 0 --
10:45 - 20/09 22.2 20.3 0 1015.70 89 6.4 NNO
10:30 - 20/09 21.9 20.2 0 1015.70 90 0 --
10:15 - 20/09 21.7 20.0 0 1015.50 90 0 --
10:00 - 20/09 21.3 19.8 0 1015.40 91 0 --
09:44 - 20/09 21.1 19.6 0 1015.20 91 0 --
09:15 - 20/09 20.7 19.3 0 1015.20 92 4.8 N
09:00 - 20/09 20.5 19.2 0 1015.40 92 0 --
08:45 - 20/09 20.4 19.1 0.2 1015.50 92 0 --
08:30 - 20/09 20.2 18.9 0 1015.40 92 0 --
08:15 - 20/09 20.2 18.9 0 1015.20 92 0 --
08:00 - 20/09 20.2 18.9 0 1015.20 92 0 --
07:45 - 20/09 20.1 18.8 0.2 1015.20 92 8.0 ENE
07:30 - 20/09 20.1 18.9 0.2 1015.00 93 0 --
07:15 - 20/09 20.3 19.1 0 1014.90 93 8.0 NE
07:00 - 20/09 20.4 19.2 0 1015.10 93 0 --
06:44 - 20/09 20.3 19.1 0 1015.20 93 0 --
06:30 - 20/09 20.4 19.2 0.2 1015.20 93 0 --
06:15 - 20/09 20.4 19.2 0.2 1015.00 93 0 --
06:00 - 20/09 20.4 19.1 0.4 1015.20 92 0 --
05:45 - 20/09 20.5 19.2 0 1015.10 92 0 --
05:30 - 20/09 20.6 19.3 0.2 1015.00 92 0 --
05:15 - 20/09 20.6 19.3 0.2 1014.90 92 0 --
05:00 - 20/09 20.6 19.3 0.2 1015.00 92 0 --
04:45 - 20/09 20.7 19.3 0.2 1015.30 92 4.8 N
04:30 - 20/09 20.6 19.3 0 1015.20 92 0 --


   In caso di mancato funzionamento di qualche risorsa, vi preghiamo di segnalarcelo alla pagina Contatti.
© 2018 Osservatorio Meteo OMTeA
Sito di informazione su Meteo, Tempo in atto e Clima in Italia